BAW813C EKCH-EGLL
Flight info
| Callsign | BAW813C |
|---|---|
| Flight time | N/A |
| Altitude | 36000 |
| Route | LANGO DCT RAXLU DCT JUIST DCT ABNED L980 LOGAN |
| Aircraft | A320/M-SDE3FGHIRWY/LB1 |
Departure
| Time | 2026-04-26 17:17 |
|---|---|
| Airport | Copenhagen Kastrup Airport (EKCH) |
Arrival
| Time | N/A |
|---|---|
| Airport | London Heathrow Airport (EGLL) |
| Time | Latitude | Longitude | Altitude | Speed | Heading |
|---|---|---|---|---|---|
| 2026-04-26 16:55 | 55.62701 | 12.65076 | 24 ft | 0 kts | 290° |
| 2026-04-26 17:05 | 55.62693 | 12.65110 | 26 ft | 4 kts | 295° |
| 2026-04-26 17:05 | 55.62682 | 12.65153 | 25 ft | 4 kts | 288° |
| 2026-04-26 17:05 | 55.62677 | 12.65184 | 24 ft | 4 kts | 211° |
| 2026-04-26 17:05 | 55.62677 | 12.65186 | 24 ft | 0 kts | 178° |
| 2026-04-26 17:07 | 55.62664 | 12.65186 | 26 ft | 6 kts | 180° |
| 2026-04-26 17:07 | 55.62607 | 12.65181 | 24 ft | 10 kts | 184° |
| 2026-04-26 17:08 | 55.62533 | 12.65184 | 24 ft | 12 kts | 179° |
| 2026-04-26 17:08 | 55.62465 | 12.65193 | 24 ft | 9 kts | 170° |
| 2026-04-26 17:08 | 55.62392 | 12.65201 | 24 ft | 12 kts | 178° |
| 2026-04-26 17:08 | 55.62304 | 12.65198 | 24 ft | 14 kts | 184° |
| 2026-04-26 17:09 | 55.62202 | 12.65168 | 24 ft | 16 kts | 202° |
| 2026-04-26 17:09 | 55.62138 | 12.65098 | 24 ft | 17 kts | 213° |
| 2026-04-26 17:09 | 55.61995 | 12.64931 | 24 ft | 17 kts | 214° |
| 2026-04-26 17:09 | 55.61888 | 12.64809 | 25 ft | 19 kts | 213° |
| 2026-04-26 17:10 | 55.61807 | 12.64714 | 24 ft | 4 kts | 213° |
| 2026-04-26 17:10 | 55.61805 | 12.64712 | 24 ft | 0 kts | 213° |
| 2026-04-26 17:10 | 55.61794 | 12.64700 | 24 ft | 3 kts | 213° |
| 2026-04-26 17:10 | 55.61739 | 12.64637 | 24 ft | 15 kts | 213° |
| 2026-04-26 17:11 | 55.61642 | 12.64526 | 24 ft | 18 kts | 213° |
| 2026-04-26 17:11 | 55.61539 | 12.64407 | 25 ft | 17 kts | 213° |
| 2026-04-26 17:11 | 55.61437 | 12.64289 | 24 ft | 19 kts | 213° |
| 2026-04-26 17:11 | 55.61328 | 12.64165 | 24 ft | 19 kts | 213° |
| 2026-04-26 17:12 | 55.61102 | 12.63905 | 24 ft | 19 kts | 213° |
| 2026-04-26 17:12 | 55.60986 | 12.63772 | 25 ft | 20 kts | 213° |
| 2026-04-26 17:13 | 55.60787 | 12.63558 | 26 ft | 12 kts | 221° |
| 2026-04-26 17:13 | 55.60711 | 12.63457 | 25 ft | 15 kts | 214° |
| 2026-04-26 17:13 | 55.60541 | 12.63223 | 26 ft | 10 kts | 208° |
| 2026-04-26 17:14 | 55.60503 | 12.63218 | 24 ft | 1 kts | 153° |
| 2026-04-26 17:14 | 55.60487 | 12.63239 | 24 ft | 4 kts | 139° |
| 2026-04-26 17:14 | 55.60460 | 12.63286 | 25 ft | 0 kts | 134° |
| 2026-04-26 17:15 | 55.60445 | 12.63316 | 24 ft | 11 kts | 131° |
| 2026-04-26 17:16 | 55.60409 | 12.63446 | 25 ft | 12 kts | 74° |
| 2026-04-26 17:16 | 55.60476 | 12.63557 | 26 ft | 14 kts | 41° |
| 2026-04-26 17:16 | 55.60619 | 12.63776 | 25 ft | 62 kts | 40° |
| 2026-04-26 17:16 | 55.61165 | 12.64618 | 25 ft | 141 kts | 41° |
| 2026-04-26 17:17 | 55.62007 | 12.65967 | 375 ft | 172 kts | 40° |
| 2026-04-26 17:17 | 55.62927 | 12.67447 | 1106 ft | 187 kts | 39° |
| 2026-04-26 17:17 | 55.63951 | 12.69046 | 1841 ft | 205 kts | 38° |
| 2026-04-26 17:17 | 55.65030 | 12.70842 | 2623 ft | 224 kts | 50° |
| 2026-04-26 17:18 | 55.65647 | 12.73515 | 3336 ft | 251 kts | 82° |
| 2026-04-26 17:18 | 55.65436 | 12.76684 | 3959 ft | 272 kts | 112° |
| 2026-04-26 17:18 | 55.64350 | 12.79447 | 4729 ft | 277 kts | 142° |
| 2026-04-26 17:18 | 55.62724 | 12.81268 | 5588 ft | 277 kts | 159° |
| 2026-04-26 17:19 | 55.58946 | 12.81924 | 7231 ft | 277 kts | 199° |
| 2026-04-26 17:19 | 55.57236 | 12.80417 | 7968 ft | 275 kts | 224° |
| 2026-04-26 17:19 | 55.56037 | 12.77840 | 8714 ft | 272 kts | 246° |
| 2026-04-26 17:20 | 55.55130 | 12.74876 | 9496 ft | 277 kts | 247° |
| 2026-04-26 17:20 | 55.54833 | 12.73900 | 9751 ft | 278 kts | 247° |
| 2026-04-26 17:20 | 55.53259 | 12.68725 | 10678 ft | 302 kts | 247° |
| 2026-04-26 17:20 | 55.52223 | 12.65313 | 11148 ft | 325 kts | 247° |
| 2026-04-26 17:21 | 55.51129 | 12.61740 | 11989 ft | 334 kts | 246° |
| 2026-04-26 17:21 | 55.50009 | 12.58124 | 13005 ft | 339 kts | 247° |
| 2026-04-26 17:21 | 55.48869 | 12.54466 | 14060 ft | 343 kts | 247° |
| 2026-04-26 17:21 | 55.47710 | 12.50756 | 14959 ft | 349 kts | 247° |
| 2026-04-26 17:22 | 55.46514 | 12.46911 | 15501 ft | 365 kts | 247° |
| 2026-04-26 17:22 | 55.45283 | 12.42959 | 16309 ft | 372 kts | 246° |
| 2026-04-26 17:22 | 55.44026 | 12.38935 | 17120 ft | 381 kts | 246° |
| 2026-04-26 17:22 | 55.42731 | 12.34782 | 17455 ft | 400 kts | 246° |
| 2026-04-26 17:23 | 55.41326 | 12.30373 | 18017 ft | 414 kts | 245° |
| 2026-04-26 17:23 | 55.39871 | 12.25917 | 18608 ft | 424 kts | 245° |
| 2026-04-26 17:23 | 55.38374 | 12.21411 | 19262 ft | 430 kts | 244° |
| 2026-04-26 17:23 | 55.36869 | 12.16917 | 19991 ft | 434 kts | 244° |
| 2026-04-26 17:24 | 55.35831 | 12.13821 | 20504 ft | 437 kts | 244° |
| 2026-04-26 17:24 | 55.33776 | 12.07683 | 21523 ft | 442 kts | 244° |
| 2026-04-26 17:24 | 55.32214 | 12.03014 | 22283 ft | 446 kts | 244° |
| 2026-04-26 17:24 | 55.30635 | 11.98289 | 23026 ft | 450 kts | 244° |
| 2026-04-26 17:25 | 55.29050 | 11.93536 | 23742 ft | 454 kts | 244° |
| 2026-04-26 17:25 | 55.27450 | 11.88746 | 24308 ft | 458 kts | 244° |
| 2026-04-26 17:25 | 55.26361 | 11.85487 | 24659 ft | 460 kts | 244° |
| 2026-04-26 17:25 | 55.24205 | 11.79046 | 25236 ft | 463 kts | 244° |
| 2026-04-26 17:26 | 55.23100 | 11.75751 | 25495 ft | 465 kts | 244° |
| 2026-04-26 17:26 | 55.21453 | 11.70861 | 25781 ft | 467 kts | 244° |
| 2026-04-26 17:26 | 55.19799 | 11.65970 | 26063 ft | 468 kts | 244° |
| 2026-04-26 17:26 | 55.18144 | 11.61091 | 26447 ft | 465 kts | 243° |
| 2026-04-26 17:27 | 55.16493 | 11.56245 | 26850 ft | 463 kts | 243° |
| 2026-04-26 17:27 | 55.14850 | 11.51427 | 27097 ft | 463 kts | 243° |
| 2026-04-26 17:27 | 55.13198 | 11.46584 | 27289 ft | 464 kts | 243° |
| 2026-04-26 17:27 | 55.11544 | 11.41733 | 27492 ft | 464 kts | 244° |
| 2026-04-26 17:28 | 55.09899 | 11.36914 | 27953 ft | 458 kts | 244° |
| 2026-04-26 17:28 | 55.08267 | 11.32147 | 28211 ft | 458 kts | 243° |
| 2026-04-26 17:28 | 55.06631 | 11.27387 | 28385 ft | 458 kts | 243° |
| 2026-04-26 17:28 | 55.04989 | 11.22619 | 28537 ft | 459 kts | 243° |
| 2026-04-26 17:29 | 55.03342 | 11.17841 | 28672 ft | 460 kts | 243° |
| 2026-04-26 17:29 | 55.02252 | 11.14681 | 28767 ft | 460 kts | 243° |
| 2026-04-26 17:29 | 55.00044 | 11.08285 | 28919 ft | 460 kts | 243° |
| 2026-04-26 17:29 | 54.98393 | 11.03511 | 29058 ft | 461 kts | 243° |
| 2026-04-26 17:30 | 54.96737 | 10.98735 | 29194 ft | 461 kts | 243° |
| 2026-04-26 17:30 | 54.95078 | 10.93961 | 29337 ft | 461 kts | 243° |
| 2026-04-26 17:30 | 54.93425 | 10.89217 | 29468 ft | 461 kts | 243° |
| 2026-04-26 17:30 | 54.91761 | 10.84464 | 29615 ft | 460 kts | 243° |
| 2026-04-26 17:31 | 54.90113 | 10.79778 | 30250 ft | 451 kts | 243° |
| 2026-04-26 17:31 | 54.88492 | 10.75177 | 30625 ft | 448 kts | 243° |
| 2026-04-26 17:31 | 54.86889 | 10.70624 | 30868 ft | 448 kts | 243° |
| 2026-04-26 17:31 | 54.85251 | 10.65958 | 31058 ft | 448 kts | 243° |
| 2026-04-26 17:32 | 54.83632 | 10.61340 | 31243 ft | 449 kts | 243° |
| 2026-04-26 17:32 | 54.82028 | 10.56778 | 31633 ft | 444 kts | 243° |
| 2026-04-26 17:32 | 54.80421 | 10.52234 | 31979 ft | 442 kts | 243° |
| 2026-04-26 17:32 | 54.78787 | 10.47634 | 32247 ft | 442 kts | 243° |
| 2026-04-26 17:33 | 54.77183 | 10.43130 | 32452 ft | 443 kts | 243° |
| 2026-04-26 17:33 | 54.75550 | 10.38547 | 32645 ft | 444 kts | 243° |
| 2026-04-26 17:33 | 54.73945 | 10.34050 | 32815 ft | 445 kts | 242° |
| 2026-04-26 17:34 | 54.70708 | 10.24903 | 33522 ft | 439 kts | 243° |
| 2026-04-26 17:34 | 54.69127 | 10.20387 | 33814 ft | 438 kts | 243° |
| 2026-04-26 17:34 | 54.67573 | 10.15934 | 34035 ft | 439 kts | 243° |
| 2026-04-26 17:34 | 54.65976 | 10.11358 | 34231 ft | 440 kts | 243° |
| 2026-04-26 17:35 | 54.64395 | 10.06836 | 34389 ft | 441 kts | 243° |
| 2026-04-26 17:35 | 54.62823 | 10.02350 | 34529 ft | 443 kts | 243° |
| 2026-04-26 17:35 | 54.61221 | 9.97799 | 34659 ft | 444 kts | 243° |
| 2026-04-26 17:35 | 54.59623 | 9.93275 | 34769 ft | 445 kts | 243° |
| 2026-04-26 17:36 | 54.58007 | 9.88725 | 34897 ft | 446 kts | 243° |
| 2026-04-26 17:36 | 54.56384 | 9.84163 | 35012 ft | 447 kts | 243° |
| 2026-04-26 17:36 | 54.54753 | 9.79586 | 35142 ft | 448 kts | 243° |
| 2026-04-26 17:36 | 54.53121 | 9.75016 | 35265 ft | 449 kts | 243° |
| 2026-04-26 17:37 | 54.51506 | 9.70502 | 35846 ft | 438 kts | 243° |
| 2026-04-26 17:37 | 54.49907 | 9.66034 | 36170 ft | 437 kts | 243° |
| 2026-04-26 17:37 | 54.48312 | 9.61570 | 36285 ft | 439 kts | 243° |
| 2026-04-26 17:38 | 54.44358 | 9.50548 | 36302 ft | 449 kts | 242° |
| 2026-04-26 17:38 | 54.41039 | 9.41353 | 36302 ft | 456 kts | 242° |
| 2026-04-26 17:39 | 54.37681 | 9.32079 | 36314 ft | 454 kts | 242° |
| 2026-04-26 17:39 | 54.34370 | 9.22993 | 36324 ft | 447 kts | 242° |
| 2026-04-26 17:40 | 54.31638 | 9.15501 | 36324 ft | 446 kts | 242° |
| 2026-04-26 17:40 | 54.27792 | 9.04971 | 36315 ft | 446 kts | 242° |
| 2026-04-26 17:41 | 54.24492 | 8.95986 | 36323 ft | 446 kts | 242° |
| 2026-04-26 17:41 | 54.21185 | 8.87013 | 36330 ft | 446 kts | 242° |
| 2026-04-26 17:42 | 54.17866 | 8.78046 | 36332 ft | 447 kts | 242° |
| 2026-04-26 17:42 | 54.14538 | 8.69090 | 36323 ft | 447 kts | 242° |
| 2026-04-26 17:43 | 54.11199 | 8.60138 | 36334 ft | 447 kts | 242° |
| 2026-04-26 17:43 | 54.07850 | 8.51195 | 36340 ft | 448 kts | 242° |
| 2026-04-26 17:44 | 54.04501 | 8.42269 | 36333 ft | 448 kts | 242° |
| 2026-04-26 17:44 | 54.01145 | 8.33343 | 36341 ft | 448 kts | 242° |
| 2026-04-26 17:45 | 53.97780 | 8.24438 | 36345 ft | 448 kts | 242° |
| 2026-04-26 17:45 | 53.94391 | 8.15546 | 36339 ft | 448 kts | 241° |
| 2026-04-26 17:46 | 53.91026 | 8.06713 | 36346 ft | 449 kts | 242° |
| 2026-04-26 17:46 | 53.87640 | 7.97830 | 36363 ft | 449 kts | 241° |
| 2026-04-26 17:47 | 53.84792 | 7.90409 | 36363 ft | 449 kts | 241° |
| 2026-04-26 17:47 | 53.80807 | 7.80052 | 36364 ft | 449 kts | 241° |
| 2026-04-26 17:48 | 53.77393 | 7.71209 | 36360 ft | 448 kts | 241° |
| 2026-04-26 17:48 | 53.73973 | 7.62399 | 36339 ft | 448 kts | 241° |
| 2026-04-26 17:49 | 53.70547 | 7.53604 | 36348 ft | 448 kts | 241° |
| 2026-04-26 17:49 | 53.67139 | 7.44892 | 36369 ft | 448 kts | 241° |
| 2026-04-26 17:50 | 53.63704 | 7.36116 | 36372 ft | 448 kts | 241° |
| 2026-04-26 17:50 | 53.60243 | 7.27292 | 36354 ft | 449 kts | 241° |
| 2026-04-26 17:51 | 53.56794 | 7.18548 | 36365 ft | 448 kts | 240° |
| 2026-04-26 17:51 | 53.53366 | 7.09892 | 36367 ft | 448 kts | 240° |
| 2026-04-26 17:52 | 53.49905 | 7.01187 | 36353 ft | 448 kts | 240° |
| 2026-04-26 17:52 | 53.46443 | 6.92498 | 36360 ft | 448 kts | 240° |
| 2026-04-26 17:53 | 53.42973 | 6.83822 | 36356 ft | 448 kts | 240° |
| 2026-04-26 17:54 | 53.37758 | 6.70833 | 36354 ft | 447 kts | 240° |
| 2026-04-26 17:54 | 53.34272 | 6.62207 | 36347 ft | 447 kts | 240° |
| 2026-04-26 17:55 | 53.30778 | 6.53601 | 36357 ft | 447 kts | 240° |
| 2026-04-26 17:55 | 53.27284 | 6.44989 | 36354 ft | 447 kts | 240° |
| 2026-04-26 17:56 | 53.23789 | 6.36400 | 36352 ft | 447 kts | 240° |
| 2026-04-26 17:57 | 53.16763 | 6.19237 | 36365 ft | 448 kts | 240° |
| 2026-04-26 17:57 | 53.13233 | 6.10679 | 36361 ft | 448 kts | 240° |
| 2026-04-26 17:58 | 53.06159 | 5.93615 | 36366 ft | 448 kts | 240° |
| 2026-04-26 17:59 | 53.00852 | 5.80842 | 36373 ft | 448 kts | 239° |
| 2026-04-26 17:59 | 52.97308 | 5.72358 | 36372 ft | 448 kts | 239° |
| 2026-04-26 18:00 | 52.93744 | 5.63867 | 36374 ft | 448 kts | 239° |
| 2026-04-26 18:00 | 52.90175 | 5.55397 | 36356 ft | 448 kts | 239° |
| 2026-04-26 18:01 | 52.86606 | 5.46947 | 36360 ft | 447 kts | 239° |
| 2026-04-26 18:01 | 52.83042 | 5.38528 | 36362 ft | 447 kts | 239° |
| 2026-04-26 18:02 | 52.80679 | 5.32971 | 36355 ft | 447 kts | 239° |
| 2026-04-26 18:02 | 52.75889 | 5.21736 | 36360 ft | 447 kts | 239° |
| 2026-04-26 18:03 | 52.72306 | 5.13348 | 36357 ft | 447 kts | 239° |
| 2026-04-26 18:03 | 52.68738 | 5.05028 | 36358 ft | 447 kts | 239° |
| 2026-04-26 18:04 | 52.65135 | 4.96672 | 36332 ft | 447 kts | 239° |
| 2026-04-26 18:05 | 52.59731 | 4.84186 | 36341 ft | 447 kts | 238° |
| 2026-04-26 18:05 | 52.56107 | 4.75838 | 36346 ft | 448 kts | 238° |
| 2026-04-26 18:06 | 52.52480 | 4.67512 | 36351 ft | 448 kts | 238° |
| 2026-04-26 18:06 | 52.48850 | 4.59196 | 36353 ft | 448 kts | 238° |
| 2026-04-26 18:07 | 52.45209 | 4.50906 | 36351 ft | 448 kts | 238° |
| 2026-04-26 18:07 | 52.41560 | 4.42610 | 36333 ft | 449 kts | 238° |
| 2026-04-26 18:08 | 52.37906 | 4.34333 | 36334 ft | 449 kts | 238° |
| 2026-04-26 18:08 | 52.34233 | 4.26045 | 36338 ft | 449 kts | 238° |
| 2026-04-26 18:09 | 52.31190 | 4.19193 | 36338 ft | 449 kts | 238° |
| 2026-04-26 18:09 | 52.27514 | 4.10929 | 36339 ft | 449 kts | 238° |
| 2026-04-26 18:10 | 52.23830 | 4.02683 | 36339 ft | 450 kts | 238° |
| 2026-04-26 18:10 | 52.20147 | 3.94464 | 36322 ft | 450 kts | 237° |
| 2026-04-26 18:11 | 52.16451 | 3.86246 | 36330 ft | 450 kts | 237° |
| 2026-04-26 18:11 | 52.12745 | 3.78047 | 36334 ft | 450 kts | 237° |
| 2026-04-26 18:12 | 52.09039 | 3.69861 | 36342 ft | 449 kts | 237° |
| 2026-04-26 18:12 | 52.05323 | 3.61665 | 36343 ft | 449 kts | 237° |
| 2026-04-26 18:13 | 52.01668 | 3.53654 | 36327 ft | 433 kts | 237° |
| 2026-04-26 18:13 | 51.98089 | 3.45839 | 36319 ft | 430 kts | 237° |
| 2026-04-26 18:14 | 51.94534 | 3.38070 | 36327 ft | 429 kts | 236° |
| 2026-04-26 18:14 | 51.90945 | 3.30244 | 36327 ft | 438 kts | 236° |
| 2026-04-26 18:15 | 51.87290 | 3.22234 | 36323 ft | 446 kts | 240° |
| 2026-04-26 18:15 | 51.84806 | 3.13072 | 36326 ft | 446 kts | 259° |
| 2026-04-26 18:16 | 51.84020 | 3.03187 | 36317 ft | 446 kts | 266° |
| 2026-04-26 18:16 | 51.83059 | 2.88466 | 36316 ft | 433 kts | 265° |
| 2026-04-26 18:17 | 51.82416 | 2.78836 | 36320 ft | 430 kts | 265° |
| 2026-04-26 18:17 | 51.81763 | 2.69230 | 36320 ft | 430 kts | 265° |
| 2026-04-26 18:18 | 51.81102 | 2.59636 | 36323 ft | 430 kts | 265° |
| 2026-04-26 18:18 | 51.80768 | 2.54831 | 35895 ft | 427 kts | 265° |
| 2026-04-26 18:18 | 51.80436 | 2.50133 | 35366 ft | 419 kts | 265° |
| 2026-04-26 18:19 | 51.80107 | 2.45481 | 34804 ft | 415 kts | 265° |
| 2026-04-26 18:19 | 51.79782 | 2.40869 | 34158 ft | 414 kts | 264° |
| 2026-04-26 18:19 | 51.79451 | 2.36185 | 33278 ft | 420 kts | 264° |
| 2026-04-26 18:19 | 51.79117 | 2.31502 | 32622 ft | 418 kts | 264° |
| 2026-04-26 18:20 | 51.78784 | 2.26854 | 32029 ft | 415 kts | 264° |
| 2026-04-26 18:20 | 51.78454 | 2.22244 | 31449 ft | 412 kts | 264° |
| 2026-04-26 18:20 | 51.78147 | 2.17673 | 30904 ft | 409 kts | 265° |
| 2026-04-26 18:20 | 51.77963 | 2.14653 | 30468 ft | 409 kts | 265° |
| 2026-04-26 18:21 | 51.77617 | 2.08488 | 29712 ft | 419 kts | 266° |
| 2026-04-26 18:21 | 51.77359 | 2.03782 | 28854 ft | 419 kts | 265° |
| 2026-04-26 18:21 | 51.77097 | 1.99160 | 28568 ft | 407 kts | 265° |
| 2026-04-26 18:21 | 51.76832 | 1.94652 | 28057 ft | 401 kts | 265° |
| 2026-04-26 18:22 | 51.76564 | 1.90193 | 27500 ft | 397 kts | 264° |
| 2026-04-26 18:22 | 51.76293 | 1.85779 | 26934 ft | 394 kts | 264° |
| 2026-04-26 18:22 | 51.76023 | 1.81386 | 26369 ft | 391 kts | 264° |
| 2026-04-26 18:22 | 51.75755 | 1.77032 | 25822 ft | 389 kts | 264° |
| 2026-04-26 18:23 | 51.75488 | 1.72709 | 25294 ft | 386 kts | 264° |
| 2026-04-26 18:23 | 51.75217 | 1.68406 | 24790 ft | 384 kts | 264° |
| 2026-04-26 18:23 | 51.74946 | 1.64132 | 24306 ft | 382 kts | 264° |
| 2026-04-26 18:23 | 51.74678 | 1.59886 | 23832 ft | 380 kts | 264° |
| 2026-04-26 18:24 | 51.74410 | 1.55657 | 23299 ft | 378 kts | 264° |
| 2026-04-26 18:24 | 51.74143 | 1.51461 | 22807 ft | 376 kts | 264° |
| 2026-04-26 18:24 | 51.73872 | 1.47258 | 22321 ft | 374 kts | 263° |
| 2026-04-26 18:24 | 51.73601 | 1.43077 | 21720 ft | 375 kts | 263° |
| 2026-04-26 18:25 | 51.73331 | 1.38897 | 21195 ft | 374 kts | 263° |
| 2026-04-26 18:25 | 51.73060 | 1.34735 | 20697 ft | 372 kts | 263° |
| 2026-04-26 18:25 | 51.72787 | 1.30570 | 19942 ft | 377 kts | 263° |
| 2026-04-26 18:25 | 51.72508 | 1.26345 | 19365 ft | 377 kts | 263° |
| 2026-04-26 18:26 | 51.72229 | 1.22149 | 18850 ft | 376 kts | 263° |
| 2026-04-26 18:26 | 51.71952 | 1.17976 | 18302 ft | 373 kts | 263° |
| 2026-04-26 18:26 | 51.71676 | 1.13829 | 17754 ft | 370 kts | 263° |
| 2026-04-26 18:26 | 51.71399 | 1.09724 | 17588 ft | 375 kts | 263° |
| 2026-04-26 18:27 | 51.71113 | 1.05538 | 17395 ft | 366 kts | 263° |
| 2026-04-26 18:27 | 51.70844 | 1.01622 | 17244 ft | 337 kts | 263° |
| 2026-04-26 18:27 | 51.70597 | 0.98001 | 17051 ft | 315 kts | 263° |
| 2026-04-26 18:27 | 51.70363 | 0.94563 | 16554 ft | 305 kts | 263° |
| 2026-04-26 18:28 | 51.70129 | 0.91193 | 15951 ft | 300 kts | 263° |
| 2026-04-26 18:28 | 51.69895 | 0.87861 | 15351 ft | 300 kts | 263° |
| 2026-04-26 18:28 | 51.69660 | 0.84534 | 15020 ft | 298 kts | 263° |
| 2026-04-26 18:28 | 51.69427 | 0.81234 | 14685 ft | 296 kts | 263° |
| 2026-04-26 18:29 | 51.69193 | 0.77953 | 14342 ft | 295 kts | 262° |
| 2026-04-26 18:29 | 51.68958 | 0.74661 | 14074 ft | 301 kts | 262° |
| 2026-04-26 18:29 | 51.68704 | 0.71122 | 13818 ft | 324 kts | 263° |
| 2026-04-26 18:29 | 51.68455 | 0.67613 | 13553 ft | 305 kts | 263° |
| 2026-04-26 18:30 | 51.68220 | 0.64276 | 13262 ft | 298 kts | 263° |
| 2026-04-26 18:30 | 51.67965 | 0.60695 | 13033 ft | 346 kts | 263° |
| 2026-04-26 18:30 | 51.67678 | 0.56718 | 12834 ft | 355 kts | 263° |
| 2026-04-26 18:30 | 51.67398 | 0.52873 | 12708 ft | 337 kts | 263° |
| 2026-04-26 18:31 | 51.67129 | 0.49194 | 12569 ft | 325 kts | 263° |
| 2026-04-26 18:31 | 51.66857 | 0.45586 | 12454 ft | 330 kts | 262° |
| 2026-04-26 18:31 | 51.66575 | 0.41976 | 12314 ft | 314 kts | 262° |
| 2026-04-26 18:31 | 51.66328 | 0.38605 | 12051 ft | 299 kts | 263° |
| 2026-04-26 18:32 | 51.66090 | 0.35266 | 11436 ft | 300 kts | 263° |
| 2026-04-26 18:32 | 51.65852 | 0.31942 | 10804 ft | 296 kts | 263° |
| 2026-04-26 18:32 | 51.65613 | 0.28673 | 10217 ft | 291 kts | 263° |
| 2026-04-26 18:32 | 51.65374 | 0.25464 | 9560 ft | 287 kts | 263° |
| 2026-04-26 18:33 | 51.65137 | 0.22314 | 9121 ft | 281 kts | 263° |
| 2026-04-26 18:33 | 51.64903 | 0.19217 | 8841 ft | 277 kts | 263° |
| 2026-04-26 18:33 | 51.64673 | 0.16152 | 8518 ft | 275 kts | 262° |
| 2026-04-26 18:33 | 51.64241 | 0.13179 | 8178 ft | 274 kts | 253° |
| 2026-04-26 18:34 | 51.63697 | 0.10228 | 7841 ft | 273 kts | 253° |
| 2026-04-26 18:34 | 51.63158 | 0.07303 | 7505 ft | 273 kts | 253° |
| 2026-04-26 18:34 | 51.62619 | 0.04381 | 7156 ft | 273 kts | 253° |
| 2026-04-26 18:34 | 51.62079 | 0.01463 | 6818 ft | 273 kts | 253° |
| 2026-04-26 18:35 | 51.61536 | -0.01460 | 6575 ft | 272 kts | 253° |
| 2026-04-26 18:35 | 51.60990 | -0.04389 | 6425 ft | 273 kts | 253° |
| 2026-04-26 18:35 | 51.60461 | -0.07315 | 6304 ft | 272 kts | 255° |
| 2026-04-26 18:35 | 51.60004 | -0.10266 | 6293 ft | 272 kts | 256° |
| 2026-04-26 18:36 | 51.59559 | -0.13221 | 6298 ft | 272 kts | 257° |
| 2026-04-26 18:36 | 51.59211 | -0.16222 | 6299 ft | 272 kts | 261° |
| 2026-04-26 18:36 | 51.58950 | -0.19189 | 6298 ft | 273 kts | 263° |
| 2026-04-26 18:36 | 51.58749 | -0.22268 | 6300 ft | 273 kts | 264° |
| 2026-04-26 18:37 | 51.58563 | -0.25292 | 6276 ft | 272 kts | 264° |
| 2026-04-26 18:37 | 51.58378 | -0.28320 | 6278 ft | 273 kts | 264° |
| 2026-04-26 18:37 | 51.58192 | -0.31366 | 6277 ft | 272 kts | 264° |
| 2026-04-26 18:37 | 51.58008 | -0.34393 | 6273 ft | 272 kts | 264° |
| 2026-04-26 18:38 | 51.57822 | -0.37423 | 6275 ft | 273 kts | 264° |
| 2026-04-26 18:38 | 51.57638 | -0.40414 | 6225 ft | 271 kts | 264° |
| 2026-04-26 18:38 | 51.57451 | -0.43457 | 5891 ft | 270 kts | 264° |
| 2026-04-26 18:38 | 51.57265 | -0.46455 | 5571 ft | 268 kts | 264° |
| 2026-04-26 18:39 | 51.57079 | -0.49436 | 5237 ft | 268 kts | 264° |
| 2026-04-26 18:39 | 51.56893 | -0.52404 | 4915 ft | 267 kts | 265° |
| 2026-04-26 18:39 | 51.56750 | -0.55379 | 4577 ft | 266 kts | 266° |
| 2026-04-26 18:39 | 51.56622 | -0.58299 | 4247 ft | 265 kts | 266° |
| 2026-04-26 18:40 | 51.56495 | -0.61272 | 4022 ft | 263 kts | 266° |
| 2026-04-26 18:40 | 51.56373 | -0.64183 | 4008 ft | 264 kts | 266° |
| 2026-04-26 18:40 | 51.56248 | -0.67169 | 4010 ft | 264 kts | 266° |
| 2026-04-26 18:40 | 51.56111 | -0.70008 | 4005 ft | 251 kts | 261° |
| 2026-04-26 18:41 | 51.55475 | -0.72482 | 4007 ft | 234 kts | 230° |
| 2026-04-26 18:41 | 51.54171 | -0.73956 | 4014 ft | 229 kts | 196° |
| 2026-04-26 18:41 | 51.52610 | -0.74078 | 4015 ft | 231 kts | 170° |
| 2026-04-26 18:41 | 51.51054 | -0.73452 | 4002 ft | 231 kts | 159° |
| 2026-04-26 18:42 | 51.49628 | -0.72348 | 3782 ft | 226 kts | 143° |
| 2026-04-26 18:42 | 51.48539 | -0.70623 | 3652 ft | 216 kts | 124° |
| 2026-04-26 18:42 | 51.47879 | -0.68536 | 3476 ft | 206 kts | 107° |
| 2026-04-26 18:42 | 51.47662 | -0.66378 | 3307 ft | 185 kts | 90° |
| 2026-04-26 18:43 | 51.47677 | -0.64430 | 3081 ft | 168 kts | 89° |
| 2026-04-26 18:43 | 51.47712 | -0.62648 | 2797 ft | 152 kts | 89° |
| 2026-04-26 18:43 | 51.47717 | -0.61020 | 2533 ft | 143 kts | 90° |
| 2026-04-26 18:43 | 51.47732 | -0.59457 | 2162 ft | 139 kts | 89° |
| 2026-04-26 18:44 | 51.47721 | -0.57912 | 1816 ft | 135 kts | 92° |
| 2026-04-26 18:44 | 51.47708 | -0.56411 | 1545 ft | 134 kts | 88° |
| 2026-04-26 18:44 | 51.47732 | -0.54912 | 1273 ft | 135 kts | 88° |
| 2026-04-26 18:44 | 51.47766 | -0.53428 | 950 ft | 132 kts | 89° |
| 2026-04-26 18:45 | 51.47752 | -0.51959 | 651 ft | 131 kts | 92° |
| 2026-04-26 18:45 | 51.47744 | -0.50519 | 384 ft | 130 kts | 90° |
| 2026-04-26 18:45 | 51.47752 | -0.49069 | 208 ft | 129 kts | 90° |
| 2026-04-26 18:45 | 51.47752 | -0.47573 | 631 ft | 140 kts | 90° |
| 2026-04-26 18:46 | 51.47897 | -0.45988 | 1174 ft | 162 kts | 69° |
| 2026-04-26 18:46 | 51.48651 | -0.44387 | 1497 ft | 198 kts | 39° |
| 2026-04-26 18:46 | 51.49857 | -0.43250 | 2361 ft | 208 kts | 18° |
| 2026-04-26 18:46 | 51.51370 | -0.42884 | 2987 ft | 232 kts | 358° |